sensor_id;sensor_type;location;lat;lon;timestamp;pressure;altitude;pressure_sealevel;temperature
72405;BMP280;60395;52.020;113.548;2023-01-30T00:02:08;92264.09;;;-17.97
72405;BMP280;60395;52.020;113.548;2023-01-30T00:05:11;92262.03;;;-17.70
72405;BMP280;60395;52.020;113.548;2023-01-30T00:08:16;92267.97;;;-17.45
72405;BMP280;60395;52.020;113.548;2023-01-30T00:11:20;92262.00;;;-17.26
72405;BMP280;60395;52.020;113.548;2023-01-30T00:14:23;92274.25;;;-17.15
72405;BMP280;60395;52.020;113.548;2023-01-30T00:17:27;92264.19;;;-17.23
72405;BMP280;60395;52.020;113.548;2023-01-30T00:20:31;92264.88;;;-17.22
72405;BMP280;60395;52.020;113.548;2023-01-30T00:23:35;92272.25;;;-17.17
72405;BMP280;60395;52.020;113.548;2023-01-30T00:26:38;92282.56;;;-17.36
72405;BMP280;60395;52.020;113.548;2023-01-30T00:29:43;92279.59;;;-17.70
72405;BMP280;60395;52.020;113.548;2023-01-30T00:33:03;92265.00;;;-18.15
72405;BMP280;60395;52.020;113.548;2023-01-30T00:36:08;92259.69;;;-18.40
72405;BMP280;60395;52.020;113.548;2023-01-30T00:39:11;92261.72;;;-18.31
72405;BMP280;60395;52.020;113.548;2023-01-30T00:42:15;92261.88;;;-18.08
72405;BMP280;60395;52.020;113.548;2023-01-30T00:45:37;92258.97;;;-17.91
72405;BMP280;60395;52.020;113.548;2023-01-30T00:49:01;92262.25;;;-17.60
72405;BMP280;60395;52.020;113.548;2023-01-30T00:52:04;92250.47;;;-17.22
72405;BMP280;60395;52.020;113.548;2023-01-30T00:55:08;92258.22;;;-16.82
72405;BMP280;60395;52.020;113.548;2023-01-30T00:58:12;92261.22;;;-16.45
72405;BMP280;60395;52.020;113.548;2023-01-30T01:01:16;92260.19;;;-16.19
72405;BMP280;60395;52.020;113.548;2023-01-30T01:04:20;92268.16;;;-15.98
72405;BMP280;60395;52.020;113.548;2023-01-30T01:07:23;92272.34;;;-15.85
72405;BMP280;60395;52.020;113.548;2023-01-30T01:10:26;92267.31;;;-15.85
72405;BMP280;60395;52.020;113.548;2023-01-30T01:13:30;92271.81;;;-15.84
72405;BMP280;60395;52.020;113.548;2023-01-30T01:16:34;92279.03;;;-15.80
72405;BMP280;60395;52.020;113.548;2023-01-30T01:19:37;92264.44;;;-15.82
72405;BMP280;60395;52.020;113.548;2023-01-30T01:22:40;92262.59;;;-15.81
72405;BMP280;60395;52.020;113.548;2023-01-30T01:25:44;92257.63;;;-15.96
72405;BMP280;60395;52.020;113.548;2023-01-30T01:28:47;92256.91;;;-15.89
72405;BMP280;60395;52.020;113.548;2023-01-30T01:31:51;92256.59;;;-15.86
72405;BMP280;60395;52.020;113.548;2023-01-30T01:34:56;92251.56;;;-15.86
72405;BMP280;60395;52.020;113.548;2023-01-30T01:38:00;92241.91;;;-15.64
72405;BMP280;60395;52.020;113.548;2023-01-30T01:41:03;92241.41;;;-15.30
72405;BMP280;60395;52.020;113.548;2023-01-30T01:44:10;92235.94;;;-14.94
72405;BMP280;60395;52.020;113.548;2023-01-30T01:47:14;92239.63;;;-14.70
72405;BMP280;60395;52.020;113.548;2023-01-30T01:54:12;92251.06;;;-14.52
72405;BMP280;60395;52.020;113.548;2023-01-30T01:57:23;92245.91;;;-14.37
72405;BMP280;60395;52.020;113.548;2023-01-30T02:00:27;92243.19;;;-14.31
72405;BMP280;60395;52.020;113.548;2023-01-30T02:03:36;92245.09;;;-14.22
72405;BMP280;60395;52.020;113.548;2023-01-30T02:06:41;92242.84;;;-14.18
72405;BMP280;60395;52.020;113.548;2023-01-30T02:09:44;92218.84;;;-14.54
72405;BMP280;60395;52.020;113.548;2023-01-30T02:12:49;92215.69;;;-14.79
72405;BMP280;60395;52.020;113.548;2023-01-30T02:16:00;92224.75;;;-14.59
72405;BMP280;60395;52.020;113.548;2023-01-30T02:19:23;92218.63;;;-14.31
72405;BMP280;60395;52.020;113.548;2023-01-30T02:37:00;92220.81;;;-13.47
72405;BMP280;60395;52.020;113.548;2023-01-30T02:40:17;92229.09;;;-13.10
72405;BMP280;60395;52.020;113.548;2023-01-30T02:47:15;92222.22;;;-12.90
72405;BMP280;60395;52.020;113.548;2023-01-30T02:50:43;92221.69;;;-12.88
72405;BMP280;60395;52.020;113.548;2023-01-30T02:53:49;92218.31;;;-13.10
72405;BMP280;60395;52.020;113.548;2023-01-30T02:56:57;92213.38;;;-13.18
72405;BMP280;60395;52.020;113.548;2023-01-30T03:00:03;92216.06;;;-13.06
72405;BMP280;60395;52.020;113.548;2023-01-30T03:03:34;92194.41;;;-12.90
72405;BMP280;60395;52.020;113.548;2023-01-30T03:07:06;92193.88;;;-12.98
72405;BMP280;60395;52.020;113.548;2023-01-30T03:16:51;92192.44;;;-12.72
72405;BMP280;60395;52.020;113.548;2023-01-30T03:19:56;92192.72;;;-12.49
72405;BMP280;60395;52.020;113.548;2023-01-30T03:23:03;92191.66;;;-12.26
72405;BMP280;60395;52.020;113.548;2023-01-30T03:26:10;92187.22;;;-12.07
72405;BMP280;60395;52.020;113.548;2023-01-30T03:29:15;92185.09;;;-12.00
72405;BMP280;60395;52.020;113.548;2023-01-30T03:32:19;92181.75;;;-12.03
72405;BMP280;60395;52.020;113.548;2023-01-30T03:35:24;92177.34;;;-11.93
72405;BMP280;60395;52.020;113.548;2023-01-30T03:38:28;92175.44;;;-11.73
72405;BMP280;60395;52.020;113.548;2023-01-30T03:41:31;92164.63;;;-11.74
72405;BMP280;60395;52.020;113.548;2023-01-30T03:44:36;92158.50;;;-11.70
72405;BMP280;60395;52.020;113.548;2023-01-30T03:47:39;92157.94;;;-11.69
72405;BMP280;60395;52.020;113.548;2023-01-30T03:50:43;92143.66;;;-11.64
72405;BMP280;60395;52.020;113.548;2023-01-30T03:53:47;92149.38;;;-11.54
72405;BMP280;60395;52.020;113.548;2023-01-30T03:56:51;92137.72;;;-11.48
72405;BMP280;60395;52.020;113.548;2023-01-30T03:59:55;92136.53;;;-11.47
72405;BMP280;60395;52.020;113.548;2023-01-30T04:02:58;92141.03;;;-11.45
72405;BMP280;60395;52.020;113.548;2023-01-30T04:06:02;92138.50;;;-11.45
72405;BMP280;60395;52.020;113.548;2023-01-30T04:09:05;92135.56;;;-11.42
72405;BMP280;60395;52.020;113.548;2023-01-30T04:12:16;92127.00;;;-11.36
72405;BMP280;60395;52.020;113.548;2023-01-30T04:15:27;92118.88;;;-11.35
72405;BMP280;60395;52.020;113.548;2023-01-30T04:18:47;92115.06;;;-11.24
72405;BMP280;60395;52.020;113.548;2023-01-30T04:21:54;92119.53;;;-11.13
72405;BMP280;60395;52.020;113.548;2023-01-30T04:24:57;92108.91;;;-11.00
72405;BMP280;60395;52.020;113.548;2023-01-30T04:28:01;92108.59;;;-10.94
72405;BMP280;60395;52.020;113.548;2023-01-30T04:31:09;92112.47;;;-10.93
72405;BMP280;60395;52.020;113.548;2023-01-30T04:34:18;92103.09;;;-10.91
72405;BMP280;60395;52.020;113.548;2023-01-30T04:37:23;92092.09;;;-10.84
72405;BMP280;60395;52.020;113.548;2023-01-30T04:40:26;92091.44;;;-10.84
72405;BMP280;60395;52.020;113.548;2023-01-30T04:43:31;92086.81;;;-10.76
72405;BMP280;60395;52.020;113.548;2023-01-30T04:46:43;92082.69;;;-10.72
72405;BMP280;60395;52.020;113.548;2023-01-30T04:49:47;92083.72;;;-10.75
72405;BMP280;60395;52.020;113.548;2023-01-30T04:52:51;92083.22;;;-10.73
72405;BMP280;60395;52.020;113.548;2023-01-30T04:55:54;92075.38;;;-10.77
72405;BMP280;60395;52.020;113.548;2023-01-30T04:58:58;92072.34;;;-10.85
72405;BMP280;60395;52.020;113.548;2023-01-30T05:02:06;92067.16;;;-10.87
72405;BMP280;60395;52.020;113.548;2023-01-30T05:05:09;92066.97;;;-10.80
72405;BMP280;60395;52.020;113.548;2023-01-30T05:08:15;92065.28;;;-10.65
72405;BMP280;60395;52.020;113.548;2023-01-30T05:11:19;92064.16;;;-10.51
72405;BMP280;60395;52.020;113.548;2023-01-30T05:14:22;92060.88;;;-10.42
72405;BMP280;60395;52.020;113.548;2023-01-30T05:17:26;92040.25;;;-10.36
72405;BMP280;60395;52.020;113.548;2023-01-30T05:20:29;92041.38;;;-10.27
72405;BMP280;60395;52.020;113.548;2023-01-30T05:23:32;92036.53;;;-10.23
72405;BMP280;60395;52.020;113.548;2023-01-30T05:26:36;92034.53;;;-10.13
72405;BMP280;60395;52.020;113.548;2023-01-30T05:29:40;92033.84;;;-10.02
72405;BMP280;60395;52.020;113.548;2023-01-30T05:32:43;92028.56;;;-9.94
72405;BMP280;60395;52.020;113.548;2023-01-30T05:35:47;92021.56;;;-9.82
72405;BMP280;60395;52.020;113.548;2023-01-30T05:38:51;92017.13;;;-9.70
72405;BMP280;60395;52.020;113.548;2023-01-30T05:41:54;92012.03;;;-9.58
72405;BMP280;60395;52.020;113.548;2023-01-30T05:44:58;92006.78;;;-9.49
72405;BMP280;60395;52.020;113.548;2023-01-30T05:48:01;91991.97;;;-9.41
72405;BMP280;60395;52.020;113.548;2023-01-30T05:51:05;91999.66;;;-9.27
72405;BMP280;60395;52.020;113.548;2023-01-30T05:54:08;91989.78;;;-9.21
72405;BMP280;60395;52.020;113.548;2023-01-30T05:57:12;91984.19;;;-9.06
72405;BMP280;60395;52.020;113.548;2023-01-30T06:00:15;91991.28;;;-8.91
72405;BMP280;60395;52.020;113.548;2023-01-30T06:03:19;91982.31;;;-8.92
72405;BMP280;60395;52.020;113.548;2023-01-30T06:06:22;91983.66;;;-8.91
72405;BMP280;60395;52.020;113.548;2023-01-30T06:09:26;91982.75;;;-8.83
72405;BMP280;60395;52.020;113.548;2023-01-30T06:12:29;91989.03;;;-8.84
72405;BMP280;60395;52.020;113.548;2023-01-30T06:15:32;91983.28;;;-8.85
72405;BMP280;60395;52.020;113.548;2023-01-30T06:18:35;91986.31;;;-8.75
72405;BMP280;60395;52.020;113.548;2023-01-30T06:21:39;91986.44;;;-8.59
72405;BMP280;60395;52.020;113.548;2023-01-30T06:24:42;91988.72;;;-8.51
72405;BMP280;60395;52.020;113.548;2023-01-30T06:27:45;91982.19;;;-8.55
72405;BMP280;60395;52.020;113.548;2023-01-30T06:30:48;91984.00;;;-8.57
72405;BMP280;60395;52.020;113.548;2023-01-30T06:33:52;91986.00;;;-8.56
72405;BMP280;60395;52.020;113.548;2023-01-30T06:36:55;91983.53;;;-8.53
72405;BMP280;60395;52.020;113.548;2023-01-30T06:39:58;91986.72;;;-8.53
72405;BMP280;60395;52.020;113.548;2023-01-30T06:43:02;91979.00;;;-8.55
72405;BMP280;60395;52.020;113.548;2023-01-30T06:46:05;91985.13;;;-8.60
72405;BMP280;60395;52.020;113.548;2023-01-30T06:49:09;91985.03;;;-8.62
72405;BMP280;60395;52.020;113.548;2023-01-30T06:52:12;91973.53;;;-8.63
72405;BMP280;60395;52.020;113.548;2023-01-30T06:55:18;91979.56;;;-8.57
72405;BMP280;60395;52.020;113.548;2023-01-30T06:58:22;91982.78;;;-8.56
72405;BMP280;60395;52.020;113.548;2023-01-30T07:01:25;91979.09;;;-8.53
72405;BMP280;60395;52.020;113.548;2023-01-30T07:04:30;91974.09;;;-8.51
72405;BMP280;60395;52.020;113.548;2023-01-30T07:07:34;91980.97;;;-8.53
72405;BMP280;60395;52.020;113.548;2023-01-30T07:10:37;91983.34;;;-8.58
72405;BMP280;60395;52.020;113.548;2023-01-30T07:13:41;91981.47;;;-8.57
72405;BMP280;60395;52.020;113.548;2023-01-30T07:16:44;91980.13;;;-8.58
72405;BMP280;60395;52.020;113.548;2023-01-30T07:19:47;91975.50;;;-8.62
72405;BMP280;60395;52.020;113.548;2023-01-30T07:22:51;91977.94;;;-8.64
72405;BMP280;60395;52.020;113.548;2023-01-30T07:25:55;91979.16;;;-8.65
72405;BMP280;60395;52.020;113.548;2023-01-30T07:28:58;91987.38;;;-8.66
72405;BMP280;60395;52.020;113.548;2023-01-30T07:32:02;91976.31;;;-8.71
72405;BMP280;60395;52.020;113.548;2023-01-30T07:35:05;91972.28;;;-8.76
72405;BMP280;60395;52.020;113.548;2023-01-30T07:38:09;91982.75;;;-8.83
72405;BMP280;60395;52.020;113.548;2023-01-30T07:41:12;91975.34;;;-8.91
72405;BMP280;60395;52.020;113.548;2023-01-30T07:44:15;91975.84;;;-8.95
72405;BMP280;60395;52.020;113.548;2023-01-30T07:47:19;91979.03;;;-8.94
72405;BMP280;60395;52.020;113.548;2023-01-30T07:50:23;91973.84;;;-8.82
72405;BMP280;60395;52.020;113.548;2023-01-30T07:53:27;91978.03;;;-8.75
72405;BMP280;60395;52.020;113.548;2023-01-30T07:56:30;91981.41;;;-8.71
72405;BMP280;60395;52.020;113.548;2023-01-30T07:59:34;91978.50;;;-8.65
72405;BMP280;60395;52.020;113.548;2023-01-30T08:02:37;91977.38;;;-8.62
72405;BMP280;60395;52.020;113.548;2023-01-30T08:05:41;91965.13;;;-8.66
72405;BMP280;60395;52.020;113.548;2023-01-30T08:08:45;91964.09;;;-8.74
72405;BMP280;60395;52.020;113.548;2023-01-30T08:11:48;91961.94;;;-8.80
72405;BMP280;60395;52.020;113.548;2023-01-30T08:14:52;91960.31;;;-8.87
72405;BMP280;60395;52.020;113.548;2023-01-30T08:17:55;91953.88;;;-8.88
72405;BMP280;60395;52.020;113.548;2023-01-30T08:21:00;91962.25;;;-8.99
72405;BMP280;60395;52.020;113.548;2023-01-30T08:24:04;91959.13;;;-9.11
72405;BMP280;60395;52.020;113.548;2023-01-30T08:27:08;91948.75;;;-9.15
72405;BMP280;60395;52.020;113.548;2023-01-30T08:30:12;91956.56;;;-9.11
72405;BMP280;60395;52.020;113.548;2023-01-30T08:33:16;91951.28;;;-9.15
72405;BMP280;60395;52.020;113.548;2023-01-30T08:36:20;91961.13;;;-9.35
72405;BMP280;60395;52.020;113.548;2023-01-30T08:39:24;91954.97;;;-9.44
72405;BMP280;60395;52.020;113.548;2023-01-30T08:42:27;91951.66;;;-9.46
72405;BMP280;60395;52.020;113.548;2023-01-30T08:45:31;91950.25;;;-9.49
72405;BMP280;60395;52.020;113.548;2023-01-30T08:48:36;91949.25;;;-9.56
72405;BMP280;60395;52.020;113.548;2023-01-30T08:51:51;91958.88;;;-9.54
72405;BMP280;60395;52.020;113.548;2023-01-30T08:54:55;91957.19;;;-9.50
72405;BMP280;60395;52.020;113.548;2023-01-30T08:57:59;91948.91;;;-9.50
72405;BMP280;60395;52.020;113.548;2023-01-30T09:01:06;91943.63;;;-9.54
72405;BMP280;60395;52.020;113.548;2023-01-30T09:04:10;91932.63;;;-9.71
72405;BMP280;60395;52.020;113.548;2023-01-30T09:07:13;91937.84;;;-10.06
72405;BMP280;60395;52.020;113.548;2023-01-30T09:10:17;91938.41;;;-10.30
72405;BMP280;60395;52.020;113.548;2023-01-30T09:13:21;91935.22;;;-10.31
72405;BMP280;60395;52.020;113.548;2023-01-30T09:16:25;91943.94;;;-10.22
72405;BMP280;60395;52.020;113.548;2023-01-30T09:19:28;91948.34;;;-10.23
72405;BMP280;60395;52.020;113.548;2023-01-30T09:22:32;91945.00;;;-10.25
72405;BMP280;60395;52.020;113.548;2023-01-30T09:25:36;91949.00;;;-10.22
72405;BMP280;60395;52.020;113.548;2023-01-30T09:28:40;91957.47;;;-10.18
72405;BMP280;60395;52.020;113.548;2023-01-30T09:31:44;91953.09;;;-10.29
72405;BMP280;60395;52.020;113.548;2023-01-30T09:34:48;91945.59;;;-10.62
72405;BMP280;60395;52.020;113.548;2023-01-30T09:37:52;91954.84;;;-10.90
72405;BMP280;60395;52.020;113.548;2023-01-30T09:57:21;91961.56;;;-11.39
72405;BMP280;60395;52.020;113.548;2023-01-30T10:00:34;91963.38;;;-11.18
72405;BMP280;60395;52.020;113.548;2023-01-30T10:03:54;91968.28;;;-10.99
72405;BMP280;60395;52.020;113.548;2023-01-30T10:14:14;91956.09;;;-11.24
72405;BMP280;60395;52.020;113.548;2023-01-30T10:21:03;91954.66;;;-11.27
72405;BMP280;60395;52.020;113.548;2023-01-30T10:27:57;91949.50;;;-11.50
72405;BMP280;60395;52.020;113.548;2023-01-30T10:31:05;91942.94;;;-11.44
72405;BMP280;60395;52.020;113.548;2023-01-30T10:34:35;91944.41;;;-11.29
72405;BMP280;60395;52.020;113.548;2023-01-30T10:38:15;91944.59;;;-11.36
72405;BMP280;60395;52.020;113.548;2023-01-30T10:41:51;91943.75;;;-11.29
72405;BMP280;60395;52.020;113.548;2023-01-30T10:45:15;91942.00;;;-11.27
72405;BMP280;60395;52.020;113.548;2023-01-30T10:52:00;91937.28;;;-11.21
72405;BMP280;60395;52.020;113.548;2023-01-30T11:02:11;91947.00;;;-10.71
72405;BMP280;60395;52.020;113.548;2023-01-30T11:05:38;91942.94;;;-10.52
72405;BMP280;60395;52.020;113.548;2023-01-30T11:08:54;91944.94;;;-10.51
72405;BMP280;60395;52.020;113.548;2023-01-30T11:11:58;91946.28;;;-10.50
72405;BMP280;60395;52.020;113.548;2023-01-30T11:15:07;91951.75;;;-10.30
72405;BMP280;60395;52.020;113.548;2023-01-30T11:18:13;91950.66;;;-10.27
72405;BMP280;60395;52.020;113.548;2023-01-30T11:21:51;91950.88;;;-10.23
72405;BMP280;60395;52.020;113.548;2023-01-30T11:25:06;91957.47;;;-10.06
72405;BMP280;60395;52.020;113.548;2023-01-30T11:28:14;91950.59;;;-9.92
72405;BMP280;60395;52.020;113.548;2023-01-30T11:31:27;91953.56;;;-9.84
72405;BMP280;60395;52.020;113.548;2023-01-30T11:34:43;91950.47;;;-9.82
72405;BMP280;60395;52.020;113.548;2023-01-30T11:37:47;91954.59;;;-10.01
72405;BMP280;60395;52.020;113.548;2023-01-30T11:44:12;91947.81;;;-10.33
72405;BMP280;60395;52.020;113.548;2023-01-30T11:47:24;91948.47;;;-10.56
72405;BMP280;60395;52.020;113.548;2023-01-30T11:50:49;91947.47;;;-10.51
72405;BMP280;60395;52.020;113.548;2023-01-30T11:54:11;91954.84;;;-10.31
72405;BMP280;60395;52.020;113.548;2023-01-30T11:57:18;91956.16;;;-10.19
72405;BMP280;60395;52.020;113.548;2023-01-30T12:00:45;91959.03;;;-10.13
72405;BMP280;60395;52.020;113.548;2023-01-30T12:03:53;91959.91;;;-10.08
72405;BMP280;60395;52.020;113.548;2023-01-30T12:07:15;91959.13;;;-9.99
72405;BMP280;60395;52.020;113.548;2023-01-30T12:10:25;91950.72;;;-9.90
72405;BMP280;60395;52.020;113.548;2023-01-30T12:13:39;91946.50;;;-9.85
72405;BMP280;60395;52.020;113.548;2023-01-30T12:26:56;91941.72;;;-9.79
72405;BMP280;60395;52.020;113.548;2023-01-30T12:33:27;91939.03;;;-9.70
72405;BMP280;60395;52.020;113.548;2023-01-30T12:36:58;91945.34;;;-9.71
72405;BMP280;60395;52.020;113.548;2023-01-30T12:43:27;91933.97;;;-9.70
72405;BMP280;60395;52.020;113.548;2023-01-30T12:53:33;91926.81;;;-9.73
72405;BMP280;60395;52.020;113.548;2023-01-30T13:07:45;91926.16;;;-10.34
72405;BMP280;60395;52.020;113.548;2023-01-30T13:28:15;91923.63;;;-10.22
72405;BMP280;60395;52.020;113.548;2023-01-30T13:31:25;91941.94;;;-10.24
72405;BMP280;60395;52.020;113.548;2023-01-30T13:34:35;91935.88;;;-10.30
72405;BMP280;60395;52.020;113.548;2023-01-30T13:37:44;91944.59;;;-10.34
72405;BMP280;60395;52.020;113.548;2023-01-30T13:40:55;91942.50;;;-10.37
72405;BMP280;60395;52.020;113.548;2023-01-30T13:47:38;91943.47;;;-10.42
72405;BMP280;60395;52.020;113.548;2023-01-30T13:51:10;91944.38;;;-10.38
72405;BMP280;60395;52.020;113.548;2023-01-30T13:57:44;91939.84;;;-10.27
72405;BMP280;60395;52.020;113.548;2023-01-30T14:00:54;91943.38;;;-10.44
72405;BMP280;60395;52.020;113.548;2023-01-30T14:07:46;91939.31;;;-10.61
72405;BMP280;60395;52.020;113.548;2023-01-30T14:10:49;91942.84;;;-10.54
72405;BMP280;60395;52.020;113.548;2023-01-30T14:17:14;91924.97;;;-10.45
72405;BMP280;60395;52.020;113.548;2023-01-30T14:20:20;91920.22;;;-10.39
72405;BMP280;60395;52.020;113.548;2023-01-30T14:23:33;91925.41;;;-10.60
72405;BMP280;60395;52.020;113.548;2023-01-30T14:29:53;91919.53;;;-11.09
72405;BMP280;60395;52.020;113.548;2023-01-30T14:32:58;91921.63;;;-11.17
72405;BMP280;60395;52.020;113.548;2023-01-30T14:39:52;91926.94;;;-11.01
72405;BMP280;60395;52.020;113.548;2023-01-30T14:49:26;91928.16;;;-10.91
72405;BMP280;60395;52.020;113.548;2023-01-30T14:52:40;91933.91;;;-10.79
72405;BMP280;60395;52.020;113.548;2023-01-30T14:55:44;91927.50;;;-10.68
72405;BMP280;60395;52.020;113.548;2023-01-30T14:58:57;91934.78;;;-10.62
72405;BMP280;60395;52.020;113.548;2023-01-30T15:05:19;91943.28;;;-10.70
72405;BMP280;60395;52.020;113.548;2023-01-30T15:08:26;91932.94;;;-10.74
72405;BMP280;60395;52.020;113.548;2023-01-30T15:11:31;91926.63;;;-10.84
72405;BMP280;60395;52.020;113.548;2023-01-30T15:18:15;91927.53;;;-11.24
72405;BMP280;60395;52.020;113.548;2023-01-30T15:31:22;91941.22;;;-11.18
72405;BMP280;60395;52.020;113.548;2023-01-30T15:34:30;91932.41;;;-11.28
72405;BMP280;60395;52.020;113.548;2023-01-30T15:37:39;91934.75;;;-11.54
72405;BMP280;60395;52.020;113.548;2023-01-30T15:40:43;91934.72;;;-11.65
72405;BMP280;60395;52.020;113.548;2023-01-30T15:44:01;91943.13;;;-11.51
72405;BMP280;60395;52.020;113.548;2023-01-30T15:50:21;91935.91;;;-11.33
72405;BMP280;60395;52.020;113.548;2023-01-30T15:53:30;91940.19;;;-11.36
72405;BMP280;60395;52.020;113.548;2023-01-30T15:56:34;91940.19;;;-11.36
72405;BMP280;60395;52.020;113.548;2023-01-30T15:59:37;91935.91;;;-11.33
72405;BMP280;60395;52.020;113.548;2023-01-30T16:02:41;91936.16;;;-11.29
72405;BMP280;60395;52.020;113.548;2023-01-30T16:05:48;91932.91;;;-11.42
72405;BMP280;60395;52.020;113.548;2023-01-30T16:09:18;91931.84;;;-11.60
72405;BMP280;60395;52.020;113.548;2023-01-30T16:12:27;91931.16;;;-11.72
72405;BMP280;60395;52.020;113.548;2023-01-30T16:18:48;91928.56;;;-11.84
72405;BMP280;60395;52.020;113.548;2023-01-30T16:21:59;91927.59;;;-11.79
72405;BMP280;60395;52.020;113.548;2023-01-30T16:25:18;91932.41;;;-11.61
72405;BMP280;60395;52.020;113.548;2023-01-30T16:28:24;91932.16;;;-11.44
72405;BMP280;60395;52.020;113.548;2023-01-30T16:31:36;91933.31;;;-11.12
72405;BMP280;60395;52.020;113.548;2023-01-30T16:34:40;91934.78;;;-10.86
72405;BMP280;60395;52.020;113.548;2023-01-30T16:37:44;91935.91;;;-10.65
72405;BMP280;60395;52.020;113.548;2023-01-30T16:40:47;91930.47;;;-10.48
72405;BMP280;60395;52.020;113.548;2023-01-30T16:44:07;91934.56;;;-10.31
72405;BMP280;60395;52.020;113.548;2023-01-30T16:47:24;91935.66;;;-10.23
72405;BMP280;60395;52.020;113.548;2023-01-30T16:50:28;91939.38;;;-10.12
72405;BMP280;60395;52.020;113.548;2023-01-30T16:53:31;91932.75;;;-10.06
72405;BMP280;60395;52.020;113.548;2023-01-30T16:56:35;91927.31;;;-10.00
72405;BMP280;60395;52.020;113.548;2023-01-30T16:59:38;91931.72;;;-10.01
72405;BMP280;60395;52.020;113.548;2023-01-30T17:02:50;91922.34;;;-9.98
72405;BMP280;60395;52.020;113.548;2023-01-30T17:05:56;91924.75;;;-9.88
72405;BMP280;60395;52.020;113.548;2023-01-30T17:09:00;91930.03;;;-9.84
72405;BMP280;60395;52.020;113.548;2023-01-30T17:12:34;91929.88;;;-9.75
72405;BMP280;60395;52.020;113.548;2023-01-30T17:15:38;91933.88;;;-9.72
72405;BMP280;60395;52.020;113.548;2023-01-30T17:18:45;91939.81;;;-9.67
72405;BMP280;60395;52.020;113.548;2023-01-30T17:21:50;91954.06;;;-9.62
72405;BMP280;60395;52.020;113.548;2023-01-30T17:25:00;91947.84;;;-9.59
72405;BMP280;60395;52.020;113.548;2023-01-30T17:28:05;91949.25;;;-9.56
72405;BMP280;60395;52.020;113.548;2023-01-30T17:31:13;91940.63;;;-9.51
72405;BMP280;60395;52.020;113.548;2023-01-30T17:34:17;91948.34;;;-9.49
72405;BMP280;60395;52.020;113.548;2023-01-30T17:37:21;91946.69;;;-9.44
72405;BMP280;60395;52.020;113.548;2023-01-30T17:40:34;91962.69;;;-9.42
72405;BMP280;60395;52.020;113.548;2023-01-30T17:43:38;91962.13;;;-9.40
72405;BMP280;60395;52.020;113.548;2023-01-30T17:46:46;91972.50;;;-9.36
72405;BMP280;60395;52.020;113.548;2023-01-30T17:49:50;91988.19;;;-9.28
72405;BMP280;60395;52.020;113.548;2023-01-30T17:52:53;92000.91;;;-9.28
72405;BMP280;60395;52.020;113.548;2023-01-30T17:55:56;91993.81;;;-9.30
72405;BMP280;60395;52.020;113.548;2023-01-30T17:58:59;91992.47;;;-9.31
72405;BMP280;60395;52.020;113.548;2023-01-30T18:02:03;91991.81;;;-9.31
72405;BMP280;60395;52.020;113.548;2023-01-30T18:05:08;91998.69;;;-9.34
72405;BMP280;60395;52.020;113.548;2023-01-30T18:08:11;92016.06;;;-9.42
72405;BMP280;60395;52.020;113.548;2023-01-30T18:11:15;92013.31;;;-9.46
72405;BMP280;60395;52.020;113.548;2023-01-30T18:14:19;92010.13;;;-9.46
72405;BMP280;60395;52.020;113.548;2023-01-30T18:17:25;92010.78;;;-9.46
72405;BMP280;60395;52.020;113.548;2023-01-30T18:20:31;91999.97;;;-9.46
72405;BMP280;60395;52.020;113.548;2023-01-30T18:23:35;92002.50;;;-9.46
72405;BMP280;60395;52.020;113.548;2023-01-30T18:26:39;92015.41;;;-9.42
72405;BMP280;60395;52.020;113.548;2023-01-30T18:29:43;92016.41;;;-9.47
72405;BMP280;60395;52.020;113.548;2023-01-30T18:32:47;92018.66;;;-9.53
72405;BMP280;60395;52.020;113.548;2023-01-30T18:35:55;92037.53;;;-9.56
72405;BMP280;60395;52.020;113.548;2023-01-30T18:38:58;92032.91;;;-9.60
72405;BMP280;60395;52.020;113.548;2023-01-30T18:42:01;92042.75;;;-9.66
72405;BMP280;60395;52.020;113.548;2023-01-30T18:45:05;92039.78;;;-9.63
72405;BMP280;60395;52.020;113.548;2023-01-30T18:48:08;92043.97;;;-9.55
72405;BMP280;60395;52.020;113.548;2023-01-30T18:51:23;92039.50;;;-9.43
72405;BMP280;60395;52.020;113.548;2023-01-30T18:54:26;92043.69;;;-9.36
72405;BMP280;60395;52.020;113.548;2023-01-30T18:57:29;92054.03;;;-9.32
72405;BMP280;60395;52.020;113.548;2023-01-30T19:00:33;92051.97;;;-9.36
72405;BMP280;60395;52.020;113.548;2023-01-30T19:03:37;92055.31;;;-9.45
72405;BMP280;60395;52.020;113.548;2023-01-30T19:06:42;92063.50;;;-9.46
72405;BMP280;60395;52.020;113.548;2023-01-30T19:09:45;92054.00;;;-9.46
72405;BMP280;60395;52.020;113.548;2023-01-30T19:12:49;92049.44;;;-9.47
72405;BMP280;60395;52.020;113.548;2023-01-30T19:16:10;92047.44;;;-9.49
72405;BMP280;60395;52.020;113.548;2023-01-30T19:19:13;92060.97;;;-9.46
72405;BMP280;60395;52.020;113.548;2023-01-30T19:22:16;92050.09;;;-9.47
72405;BMP280;60395;52.020;113.548;2023-01-30T19:25:20;92052.84;;;-9.43
72405;BMP280;60395;52.020;113.548;2023-01-30T19:28:25;92041.94;;;-9.45
72405;BMP280;60395;52.020;113.548;2023-01-30T19:31:28;92052.13;;;-9.45
72405;BMP280;60395;52.020;113.548;2023-01-30T19:34:32;92050.53;;;-9.39
72405;BMP280;60395;52.020;113.548;2023-01-30T19:37:35;92050.19;;;-9.33
72405;BMP280;60395;52.020;113.548;2023-01-30T19:40:41;92047.06;;;-9.32
72405;BMP280;60395;52.020;113.548;2023-01-30T19:43:45;92043.63;;;-9.24
72405;BMP280;60395;52.020;113.548;2023-01-30T19:46:48;92045.63;;;-9.23
72405;BMP280;60395;52.020;113.548;2023-01-30T19:49:52;92050.72;;;-9.23
72405;BMP280;60395;52.020;113.548;2023-01-30T19:52:57;92055.53;;;-9.15
72405;BMP280;60395;52.020;113.548;2023-01-30T19:56:00;92059.16;;;-9.07
72405;BMP280;60395;52.020;113.548;2023-01-30T19:59:06;92053.31;;;-9.09
72405;BMP280;60395;52.020;113.548;2023-01-30T20:02:09;92057.41;;;-9.16
72405;BMP280;60395;52.020;113.548;2023-01-30T20:05:13;92064.09;;;-9.22
72405;BMP280;60395;52.020;113.548;2023-01-30T20:08:16;92069.53;;;-9.28
72405;BMP280;60395;52.020;113.548;2023-01-30T20:11:34;92073.38;;;-9.27
72405;BMP280;60395;52.020;113.548;2023-01-30T20:14:38;92070.19;;;-9.27
72405;BMP280;60395;52.020;113.548;2023-01-30T20:17:41;92064.44;;;-9.28